createdAt,value
2019-01-02T00:02:15.894Z,22.00
2019-01-02T00:05:38.777Z,29.70
2019-01-02T00:09:01.557Z,28.43
2019-01-02T00:12:24.077Z,27.03
2019-01-02T00:15:46.375Z,19.57
2019-01-02T00:19:09.176Z,23.80
2019-01-02T00:22:32.189Z,29.67
2019-01-02T00:25:55.462Z,22.43
2019-01-02T00:29:18.332Z,29.83
2019-01-02T00:32:41.274Z,30.67
2019-01-02T00:36:04.056Z,25.63
2019-01-02T00:39:26.749Z,38.23
2019-01-02T00:42:49.409Z,24.20
2019-01-02T00:46:12.346Z,24.13
2019-01-02T00:49:35.001Z,33.33
2019-01-02T00:52:57.778Z,28.13
2019-01-02T00:56:20.937Z,27.77
2019-01-02T00:59:43.877Z,23.00
2019-01-02T01:03:07.262Z,20.23
2019-01-02T01:06:30.245Z,26.87
2019-01-02T01:09:53.030Z,27.27
2019-01-02T01:13:16.022Z,27.77
2019-01-02T01:16:38.496Z,25.60
2019-01-02T01:20:01.257Z,30.63
2019-01-02T01:23:24.358Z,28.03
2019-01-02T01:26:46.937Z,31.60
2019-01-02T01:30:10.131Z,21.53
2019-01-02T01:33:32.508Z,27.17
2019-01-02T01:36:55.195Z,22.23
2019-01-02T01:40:18.006Z,26.03
2019-01-02T01:43:40.405Z,21.43
2019-01-02T01:47:02.877Z,23.13
2019-01-02T01:50:25.569Z,14.97
2019-01-02T01:53:48.005Z,25.90
2019-01-02T01:57:10.595Z,21.93
2019-01-02T02:00:33.330Z,20.43
2019-01-02T02:03:55.546Z,23.53
2019-01-02T02:07:18.413Z,19.33
2019-01-02T02:10:40.858Z,21.33
2019-01-02T02:14:03.270Z,16.43
2019-01-02T02:17:25.673Z,15.67
2019-01-02T02:20:48.496Z,31.83
2019-01-02T02:24:11.287Z,23.70
2019-01-02T02:27:33.857Z,19.70
2019-01-02T02:30:56.921Z,30.73
2019-01-02T02:34:20.173Z,24.23
2019-01-02T02:37:43.410Z,20.20
2019-01-02T02:41:06.145Z,22.37
2019-01-02T02:44:28.973Z,10.57
2019-01-02T02:47:51.518Z,24.67
2019-01-02T02:51:14.757Z,22.17
2019-01-02T02:54:37.866Z,20.63
2019-01-02T02:58:00.432Z,14.60
2019-01-02T03:01:23.060Z,17.37
2019-01-02T03:04:46.491Z,19.67
2019-01-02T03:08:09.618Z,15.87
2019-01-02T03:11:32.908Z,19.57
2019-01-02T03:14:55.687Z,19.40
2019-01-02T03:18:18.717Z,30.13
2019-01-02T03:21:41.621Z,17.33
2019-01-02T03:25:04.957Z,15.10
2019-01-02T03:28:27.896Z,13.90
2019-01-02T03:31:51.000Z,13.30
2019-01-02T03:35:13.850Z,15.80
2019-01-02T03:38:36.485Z,15.40
2019-01-02T03:41:58.836Z,13.50
2019-01-02T03:45:21.806Z,15.53
2019-01-02T03:48:44.703Z,12.77
2019-01-02T03:52:07.294Z,12.00
2019-01-02T03:55:29.744Z,16.37
2019-01-02T03:58:52.189Z,11.37
2019-01-02T04:02:14.370Z,10.43
2019-01-02T04:05:36.773Z,12.90
2019-01-02T04:08:59.464Z,13.50
2019-01-02T04:12:21.600Z,11.97
2019-01-02T04:15:44.144Z,8.70
2019-01-02T04:19:06.665Z,17.90
2019-01-02T04:22:29.045Z,9.47
2019-01-02T04:25:51.507Z,10.53
2019-01-02T04:29:14.296Z,11.97
2019-01-02T04:32:36.914Z,14.13
2019-01-02T04:35:59.002Z,8.40
2019-01-02T04:39:21.682Z,9.67
2019-01-02T04:42:44.493Z,10.30
2019-01-02T04:46:06.893Z,5.90
2019-01-02T04:49:29.399Z,9.50
2019-01-02T04:52:52.118Z,10.90
2019-01-02T04:56:14.557Z,8.60
2019-01-02T04:59:37.264Z,11.57
2019-01-02T05:03:00.085Z,10.20
2019-01-02T05:06:22.732Z,13.37
2019-01-02T05:09:45.629Z,9.23
2019-01-02T05:13:08.340Z,9.97
2019-01-02T05:16:30.886Z,15.17
2019-01-02T05:19:53.110Z,11.80
2019-01-02T05:23:15.628Z,6.83
2019-01-02T05:26:38.118Z,11.93
2019-01-02T05:30:00.696Z,10.53
2019-01-02T05:33:23.133Z,10.00
2019-01-02T05:36:45.525Z,8.93
2019-01-02T05:40:11.127Z,10.80
2019-01-02T05:43:33.668Z,9.93
2019-01-02T05:46:56.332Z,10.63
2019-01-02T05:50:18.824Z,12.07
2019-01-02T05:53:41.334Z,8.90
2019-01-02T05:57:03.842Z,5.83
2019-01-02T06:00:27.351Z,10.87
2019-01-02T06:03:49.941Z,13.53
2019-01-02T06:07:12.314Z,7.27
2019-01-02T06:10:34.964Z,9.23
2019-01-02T06:13:57.412Z,10.93
2019-01-02T06:17:20.090Z,9.17
2019-01-02T06:20:42.895Z,9.03
2019-01-02T06:24:05.042Z,8.83
2019-01-02T06:27:27.533Z,9.57
2019-01-02T06:30:50.213Z,8.17
2019-01-02T06:34:12.905Z,13.77
2019-01-02T06:37:35.059Z,9.37
2019-01-02T06:40:57.733Z,13.30
2019-01-02T06:44:20.133Z,12.33
2019-01-02T06:47:42.348Z,9.27
2019-01-02T06:51:04.456Z,8.33
2019-01-02T06:54:27.262Z,10.77
2019-01-02T06:57:49.488Z,7.23
2019-01-02T07:01:11.959Z,6.30
2019-01-02T07:04:34.781Z,6.97
2019-01-02T07:07:57.523Z,11.77
2019-01-02T07:11:20.415Z,8.20
2019-01-02T07:14:42.607Z,7.63
2019-01-02T07:18:04.957Z,11.70
2019-01-02T07:21:27.281Z,7.83
2019-01-02T07:24:49.654Z,9.50
2019-01-02T07:28:12.348Z,10.17
2019-01-02T07:31:34.721Z,9.87
2019-01-02T07:35:59.959Z,8.63
2019-01-02T07:39:52.858Z,8.73
2019-01-02T07:43:47.194Z,6.83
2019-01-02T07:47:59.425Z,9.70
2019-01-02T07:51:43.841Z,11.90
2019-01-02T07:55:31.570Z,8.43
2019-01-02T07:59:21.558Z,8.00
2019-01-02T08:03:13.110Z,6.80
2019-01-02T08:07:18.660Z,5.00
2019-01-02T08:11:30.967Z,8.13
2019-01-02T08:15:23.685Z,7.70
2019-01-02T08:19:29.913Z,8.00
2019-01-02T08:23:14.047Z,6.83
2019-01-02T08:27:36.217Z,7.83
2019-01-02T08:31:32.117Z,5.57
2019-01-02T08:35:29.836Z,7.67
2019-01-02T08:39:16.812Z,6.70
2019-01-02T08:43:18.022Z,8.57
2019-01-02T08:47:23.962Z,6.33
2019-01-02T08:51:12.335Z,4.87
2019-01-02T08:55:15.070Z,4.93
2019-01-02T08:58:48.860Z,6.27
2019-01-02T09:02:36.801Z,6.87
2019-01-02T09:06:42.053Z,5.90
2019-01-02T09:10:44.597Z,5.63
2019-01-02T09:15:04.633Z,4.43
2019-01-02T09:19:05.701Z,3.73
2019-01-02T09:22:54.086Z,3.90
2019-01-02T09:26:55.826Z,5.13
2019-01-02T09:30:58.136Z,6.80
2019-01-02T09:34:34.736Z,5.17
2019-01-02T09:38:35.141Z,6.03
2019-01-02T09:42:41.433Z,3.83
2019-01-02T09:46:42.058Z,5.23
2019-01-02T09:50:57.249Z,3.83
2019-01-02T09:55:01.249Z,2.43
2019-01-02T09:58:58.875Z,1.93
2019-01-02T10:02:48.932Z,3.47
2019-01-02T10:06:59.426Z,5.43
2019-01-02T10:10:57.972Z,3.67
2019-01-02T10:14:59.491Z,2.53
2019-01-02T10:18:46.478Z,4.70
2019-01-02T10:22:51.739Z,5.77
2019-01-02T10:26:30.963Z,5.63
2019-01-02T10:30:46.086Z,5.10
2019-01-02T10:34:38.990Z,5.37
2019-01-02T10:38:27.872Z,5.40
2019-01-02T10:42:50.375Z,4.80
2019-01-02T10:46:54.520Z,4.20
2019-01-02T10:50:33.034Z,21.80
2019-01-02T10:54:35.266Z,4.90
2019-01-02T10:58:20.059Z,6.03
2019-01-02T11:02:16.500Z,5.40
2019-01-02T11:06:08.629Z,5.47
2019-01-02T11:10:07.086Z,5.73
2019-01-02T11:13:53.659Z,6.33
2019-01-02T11:17:24.924Z,3.30
2019-01-02T11:21:37.326Z,4.93
2019-01-02T11:25:18.008Z,2.77
2019-01-02T11:29:08.850Z,2.27
2019-01-02T11:33:09.115Z,6.17
2019-01-02T11:36:50.132Z,3.10
2019-01-02T11:40:40.952Z,4.17
2019-01-02T11:44:36.336Z,7.40
2019-01-02T11:47:58.470Z,4.67
2019-01-02T11:51:20.553Z,2.60
2019-01-02T11:54:42.965Z,3.97
2019-01-02T11:58:05.262Z,2.13
2019-01-02T12:01:28.124Z,2.73
2019-01-02T12:04:50.787Z,2.20
2019-01-02T12:08:13.757Z,2.57
2019-01-02T12:11:36.762Z,0.93
2019-01-02T12:14:59.350Z,2.97
2019-01-02T12:18:21.868Z,1.67
2019-01-02T12:21:44.631Z,5.67
2019-01-02T12:25:07.412Z,3.30
2019-01-02T12:28:29.862Z,3.43
2019-01-02T12:31:52.099Z,4.03
2019-01-02T12:35:14.779Z,8.67
2019-01-02T12:38:37.078Z,1.27
2019-01-02T12:41:59.602Z,1.57
2019-01-02T12:45:22.096Z,6.03
2019-01-02T12:48:44.794Z,1.70
2019-01-02T12:52:07.246Z,2.30
2019-01-02T12:55:29.606Z,3.60
2019-01-02T12:58:52.062Z,1.63
2019-01-02T13:02:45.998Z,3.93
2019-01-02T13:06:55.734Z,2.33
2019-01-02T13:10:58.053Z,2.33
2019-01-02T13:15:10.448Z,2.87
2019-01-02T13:19:09.616Z,3.43
2019-01-02T13:23:00.133Z,1.87
2019-01-02T13:27:06.034Z,4.10
2019-01-02T13:31:05.572Z,3.30
2019-01-02T13:34:49.091Z,4.70
2019-01-02T13:38:32.896Z,4.27
2019-01-02T13:42:09.694Z,2.83
2019-01-02T13:45:39.713Z,5.17
2019-01-02T13:49:40.566Z,4.33
2019-01-02T13:53:05.592Z,5.03
2019-01-02T13:56:28.108Z,2.87
2019-01-02T13:59:50.241Z,5.67
2019-01-02T14:03:12.346Z,7.23
2019-01-02T14:06:34.701Z,4.07
2019-01-02T14:09:57.046Z,5.87
2019-01-02T14:13:19.458Z,6.27
2019-01-02T14:16:41.915Z,6.23
2019-01-02T14:20:05.182Z,4.73
2019-01-02T14:23:27.842Z,6.47
2019-01-02T14:26:50.256Z,8.00
2019-01-02T14:30:12.833Z,8.57
2019-01-02T14:33:35.506Z,6.33
2019-01-02T14:36:57.698Z,4.53
2019-01-02T14:40:20.330Z,5.77
2019-01-02T14:43:42.870Z,4.93
2019-01-02T14:47:05.678Z,5.40
2019-01-02T14:50:28.174Z,11.13
2019-01-02T14:53:50.919Z,5.23
2019-01-02T14:57:13.637Z,5.80
2019-01-02T15:00:36.261Z,5.10
2019-01-02T15:03:59.010Z,2.97
2019-01-02T15:07:21.245Z,8.10
2019-01-02T15:10:43.954Z,3.50
2019-01-02T15:14:06.383Z,3.80
2019-01-02T15:17:29.045Z,3.13
2019-01-02T15:20:51.763Z,4.20
2019-01-02T15:24:13.907Z,5.93
2019-01-02T15:27:36.317Z,4.97
2019-01-02T15:30:58.786Z,4.63
2019-01-02T15:34:21.098Z,2.93
2019-01-02T15:37:43.500Z,7.03
2019-01-02T15:41:05.958Z,4.80
2019-01-02T15:44:28.753Z,7.30
2019-01-02T15:47:51.194Z,3.83
2019-01-02T15:51:13.780Z,5.50
2019-01-02T15:54:36.566Z,8.40
2019-01-02T15:57:59.291Z,20.03
2019-01-02T16:01:21.710Z,5.63
2019-01-02T16:04:43.868Z,37.80
2019-01-02T16:08:06.552Z,8.30
2019-01-02T16:11:29.281Z,6.70
2019-01-02T16:14:51.894Z,5.43
2019-01-02T16:18:14.385Z,5.83
2019-01-02T16:21:37.156Z,2.83
2019-01-02T16:25:00.102Z,5.57
2019-01-02T16:28:22.563Z,7.30
2019-01-02T16:31:45.176Z,11.90
2019-01-02T16:35:08.085Z,3.07
2019-01-02T16:38:30.347Z,3.93
2019-01-02T16:41:53.683Z,4.27
2019-01-02T16:45:16.562Z,6.37
2019-01-02T16:48:39.061Z,10.90
2019-01-02T16:52:01.135Z,12.33
2019-01-02T16:55:23.540Z,3.83
2019-01-02T16:58:45.919Z,6.57
2019-01-02T17:02:07.949Z,9.53
2019-01-02T17:05:30.390Z,9.17
2019-01-02T17:08:52.780Z,5.80
2019-01-02T17:12:15.295Z,3.03
2019-01-02T17:15:37.781Z,3.70
2019-01-02T17:19:00.433Z,8.97
2019-01-02T17:22:23.077Z,4.37
2019-01-02T17:25:45.292Z,3.87
2019-01-02T17:29:07.991Z,2.67
2019-01-02T17:32:39.686Z,2.67
2019-01-02T17:36:02.242Z,2.83
2019-01-02T17:39:24.603Z,4.97
2019-01-02T17:42:46.988Z,9.97
2019-01-02T17:46:09.116Z,8.10
2019-01-02T17:49:31.524Z,10.63
2019-01-02T17:52:54.429Z,7.97
2019-01-02T17:56:16.798Z,4.83
2019-01-02T17:59:39.193Z,4.27
2019-01-02T18:03:01.323Z,8.40
2019-01-02T18:06:23.438Z,6.03
2019-01-02T18:09:45.828Z,6.53
2019-01-02T18:13:08.525Z,9.57
2019-01-02T18:16:31.076Z,10.80
2019-01-02T18:19:53.528Z,6.40
2019-01-02T18:23:15.717Z,5.40
2019-01-02T18:26:38.171Z,6.63
2019-01-02T18:30:00.697Z,5.37
2019-01-02T18:33:23.569Z,6.17
2019-01-02T18:36:46.041Z,8.40
2019-01-02T18:40:08.907Z,7.00
2019-01-02T18:43:31.479Z,8.63
2019-01-02T18:46:54.280Z,8.53
2019-01-02T18:50:17.131Z,9.37
2019-01-02T18:53:39.822Z,5.13
2019-01-02T18:57:02.667Z,5.13
2019-01-02T19:00:26.406Z,7.63
2019-01-02T19:03:49.261Z,6.10
2019-01-02T19:07:11.892Z,5.23
2019-01-02T19:10:34.067Z,6.27
2019-01-02T19:13:56.385Z,6.37
2019-01-02T19:17:18.687Z,8.10
2019-01-02T19:20:41.114Z,6.30
2019-01-02T19:24:03.503Z,8.63
2019-01-02T19:27:25.931Z,15.57
2019-01-02T19:30:48.586Z,10.17
2019-01-02T19:34:11.001Z,9.67
2019-01-02T19:37:33.477Z,12.17
2019-01-02T19:40:56.188Z,6.67
2019-01-02T19:44:18.540Z,6.50
2019-01-02T19:47:40.983Z,7.43
2019-01-02T19:51:03.736Z,8.77
2019-01-02T19:54:26.204Z,6.93
2019-01-02T19:57:48.750Z,12.37
2019-01-02T20:01:10.900Z,9.23
2019-01-02T20:04:33.739Z,11.93
2019-01-02T20:07:56.245Z,7.73
2019-01-02T20:11:18.773Z,7.40
2019-01-02T20:14:41.337Z,9.50
2019-01-02T20:18:04.083Z,8.77
2019-01-02T20:21:26.374Z,7.40
2019-01-02T20:24:48.994Z,11.87
2019-01-02T20:28:11.814Z,6.80
2019-01-02T20:31:34.701Z,6.20
2019-01-02T20:34:57.178Z,10.60
2019-01-02T20:38:19.705Z,7.63
2019-01-02T20:41:42.394Z,8.27
2019-01-02T20:45:05.058Z,10.53
2019-01-02T20:48:27.541Z,9.87
2019-01-02T20:51:49.913Z,9.63
2019-01-02T20:55:12.664Z,6.23
2019-01-02T20:58:35.054Z,8.87
2019-01-02T21:01:57.856Z,7.93
2019-01-02T21:05:20.325Z,12.17
2019-01-02T21:08:42.919Z,7.37
2019-01-02T21:12:05.418Z,15.60
2019-01-02T21:15:27.594Z,9.17
2019-01-02T21:18:50.107Z,7.50
2019-01-02T21:22:12.523Z,9.43
2019-01-02T21:25:34.904Z,7.97
2019-01-02T21:28:57.600Z,6.67
2019-01-02T21:32:20.245Z,6.90
2019-01-02T21:35:42.706Z,9.00
2019-01-02T21:39:07.955Z,11.03
2019-01-02T21:42:30.830Z,14.83
2019-01-02T21:45:53.391Z,9.23
2019-01-02T21:49:15.590Z,7.43
2019-01-02T21:52:38.082Z,10.67
2019-01-02T21:56:00.827Z,7.43
2019-01-02T21:59:23.248Z,6.37
2019-01-02T22:02:45.892Z,9.83
2019-01-02T22:06:08.138Z,8.53
2019-01-02T22:09:31.037Z,6.33
2019-01-02T22:12:53.618Z,6.83
2019-01-02T22:16:16.404Z,7.07
2019-01-02T22:19:39.386Z,6.67
2019-01-02T22:23:02.111Z,4.23
2019-01-02T22:26:24.308Z,7.37
2019-01-02T22:29:46.825Z,9.77
2019-01-02T22:33:09.412Z,7.07
2019-01-02T22:36:31.579Z,10.67
2019-01-02T22:39:54.068Z,8.33
2019-01-02T22:43:16.799Z,7.33
2019-01-02T22:46:39.147Z,9.50
2019-01-02T22:50:01.493Z,17.03
2019-01-02T22:53:23.834Z,9.80
2019-01-02T22:56:46.582Z,9.93
2019-01-02T23:00:32.712Z,11.70
2019-01-02T23:04:12.166Z,10.40
2019-01-02T23:08:00.438Z,5.87
2019-01-02T23:11:41.899Z,9.77
2019-01-02T23:15:39.129Z,6.73
2019-01-02T23:19:21.498Z,9.07
2019-01-02T23:23:03.396Z,10.40
2019-01-02T23:26:44.931Z,7.40
2019-01-02T23:30:23.345Z,6.10
2019-01-02T23:34:04.712Z,5.97
2019-01-02T23:37:41.561Z,11.17
2019-01-02T23:41:22.329Z,7.27
2019-01-02T23:45:01.725Z,6.47
2019-01-02T23:48:59.001Z,8.33
2019-01-02T23:52:39.271Z,7.50
2019-01-02T23:56:19.935Z,8.00
